createdAt,value
2023-04-30T00:01:56.304Z,8.93
2023-04-30T00:04:22.750Z,8.45
2023-04-30T00:06:49.138Z,7.65
2023-04-30T00:09:15.572Z,8.48
2023-04-30T00:11:41.954Z,8.50
2023-04-30T00:14:08.325Z,8.43
2023-04-30T00:16:34.799Z,7.90
2023-04-30T00:19:01.256Z,8.38
2023-04-30T00:21:27.927Z,7.85
2023-04-30T00:23:54.274Z,8.10
2023-04-30T00:26:20.622Z,7.90
2023-04-30T00:28:47.001Z,7.65
2023-04-30T00:31:13.341Z,7.63
2023-04-30T00:33:39.660Z,8.02
2023-04-30T00:36:06.392Z,7.72
2023-04-30T00:38:32.759Z,7.95
2023-04-30T00:40:59.660Z,7.57
2023-04-30T00:43:26.193Z,7.22
2023-04-30T00:45:52.698Z,7.70
2023-04-30T00:48:19.277Z,7.68
2023-04-30T00:50:45.617Z,8.27
2023-04-30T00:53:12.210Z,6.93
2023-04-30T00:55:39.298Z,7.68
2023-04-30T00:58:05.829Z,7.60
2023-04-30T01:00:32.273Z,7.32
2023-04-30T01:02:58.911Z,7.72
2023-04-30T01:05:26.365Z,8.00
2023-04-30T01:07:53.358Z,7.53
2023-04-30T01:10:19.760Z,8.32
2023-04-30T01:12:46.366Z,8.82
2023-04-30T01:15:26.674Z,8.05
2023-04-30T01:17:56.333Z,7.95
2023-04-30T01:20:23.895Z,7.13
2023-04-30T01:22:59.661Z,8.43
2023-04-30T01:25:26.001Z,7.47
2023-04-30T01:27:52.567Z,7.60
2023-04-30T01:30:19.063Z,7.72
2023-04-30T01:32:45.377Z,8.30
2023-04-30T01:35:12.526Z,7.55
2023-04-30T01:37:44.095Z,8.00
2023-04-30T01:40:22.928Z,7.15
2023-04-30T01:43:05.649Z,8.00
2023-04-30T01:45:31.996Z,8.00
2023-04-30T01:48:21.286Z,8.25
2023-04-30T01:50:49.506Z,7.82
2023-04-30T01:53:19.877Z,7.90
2023-04-30T01:55:57.409Z,8.65
2023-04-30T01:58:24.711Z,9.95
2023-04-30T02:00:51.892Z,8.10
2023-04-30T02:03:18.323Z,8.98
2023-04-30T02:05:44.891Z,8.93
2023-04-30T02:08:11.193Z,7.47
2023-04-30T02:10:37.523Z,8.43
2023-04-30T02:13:03.807Z,9.10
2023-04-30T02:15:30.431Z,8.63
2023-04-30T02:17:56.787Z,8.20
2023-04-30T02:20:23.043Z,7.00
2023-04-30T02:22:49.379Z,8.80
2023-04-30T02:25:15.986Z,7.70
2023-04-30T02:27:42.307Z,6.97
2023-04-30T02:30:08.765Z,6.75
2023-04-30T02:32:35.186Z,7.45
2023-04-30T02:35:01.688Z,6.95
2023-04-30T02:37:28.083Z,6.70
2023-04-30T02:39:54.765Z,7.07
2023-04-30T02:42:21.331Z,7.63
2023-04-30T02:44:47.687Z,6.70
2023-04-30T02:47:14.055Z,6.63
2023-04-30T02:49:40.512Z,7.13
2023-04-30T02:52:09.511Z,7.00
2023-04-30T02:54:36.153Z,6.28
2023-04-30T02:57:02.717Z,6.65
2023-04-30T02:59:29.132Z,6.95
2023-04-30T03:01:55.522Z,6.13
2023-04-30T03:04:21.851Z,6.35
2023-04-30T03:06:48.201Z,6.78
2023-04-30T03:09:15.038Z,7.47
2023-04-30T03:11:41.312Z,6.00
2023-04-30T03:14:07.729Z,7.32
2023-04-30T03:16:34.159Z,6.35
2023-04-30T03:19:00.845Z,6.03
2023-04-30T03:21:27.183Z,6.55
2023-04-30T03:23:53.580Z,6.32
2023-04-30T03:26:21.007Z,5.57
2023-04-30T03:28:47.547Z,6.15
2023-04-30T03:31:13.856Z,6.70
2023-04-30T03:33:40.445Z,7.03
2023-04-30T03:36:06.743Z,6.78
2023-04-30T03:38:33.045Z,6.03
2023-04-30T03:41:01.223Z,6.25
2023-04-30T03:43:27.509Z,6.65
2023-04-30T03:45:53.840Z,5.93
2023-04-30T03:48:20.529Z,6.20
2023-04-30T03:50:47.032Z,5.97
2023-04-30T03:53:13.554Z,6.15
2023-04-30T03:55:39.930Z,6.50
2023-04-30T03:58:06.248Z,6.95
2023-04-30T04:00:32.648Z,6.25
2023-04-30T04:03:00.509Z,6.78
2023-04-30T04:05:26.947Z,7.22
2023-04-30T04:07:53.237Z,5.85
2023-04-30T04:10:19.554Z,6.18
2023-04-30T04:12:46.268Z,6.20
2023-04-30T04:15:13.403Z,5.85
2023-04-30T04:17:39.908Z,6.20
2023-04-30T04:20:06.760Z,5.95
2023-04-30T04:22:33.058Z,6.28
2023-04-30T04:25:00.547Z,6.43
2023-04-30T04:27:26.846Z,5.68
2023-04-30T04:29:55.119Z,6.15
2023-04-30T04:32:22.715Z,6.95
2023-04-30T04:34:49.558Z,6.85
2023-04-30T04:37:17.548Z,6.00
2023-04-30T04:39:45.002Z,5.95
2023-04-30T04:42:11.653Z,7.72
2023-04-30T04:44:38.229Z,6.38
2023-04-30T04:47:04.776Z,6.88
2023-04-30T04:49:31.107Z,6.55
2023-04-30T04:51:57.434Z,6.50
2023-04-30T04:54:23.725Z,6.47
2023-04-30T04:56:50.067Z,6.30
2023-04-30T04:59:17.308Z,6.68
2023-04-30T05:01:43.623Z,6.88
2023-04-30T05:04:10.166Z,6.93
2023-04-30T05:06:36.635Z,5.75
2023-04-30T05:09:05.167Z,6.20
2023-04-30T05:11:31.438Z,6.68
2023-04-30T05:13:58.200Z,5.90
2023-04-30T05:16:24.603Z,6.63
2023-04-30T05:18:51.032Z,6.28
2023-04-30T05:21:17.340Z,7.47
2023-04-30T05:23:44.331Z,6.15
2023-04-30T05:26:10.657Z,6.43
2023-04-30T05:28:37.011Z,6.30
2023-04-30T05:31:03.464Z,6.53
2023-04-30T05:33:30.476Z,5.72
2023-04-30T05:35:56.817Z,6.60
2023-04-30T05:38:23.241Z,6.47
2023-04-30T05:40:49.671Z,6.80
2023-04-30T05:43:16.075Z,6.50
2023-04-30T05:45:42.487Z,6.18
2023-04-30T05:48:08.916Z,6.10
2023-04-30T05:50:35.313Z,6.57
2023-04-30T05:53:01.672Z,7.18
2023-04-30T05:55:27.979Z,6.18
2023-04-30T05:57:54.295Z,6.18
2023-04-30T06:00:20.798Z,6.28
2023-04-30T06:02:47.383Z,6.40
2023-04-30T06:05:16.136Z,6.35
2023-04-30T06:07:42.706Z,7.03
2023-04-30T06:10:09.524Z,5.85
2023-04-30T06:12:36.070Z,6.72
2023-04-30T06:15:02.851Z,6.53
2023-04-30T06:17:29.522Z,5.72
2023-04-30T06:19:56.142Z,5.97
2023-04-30T06:22:22.753Z,5.93
2023-04-30T06:24:49.100Z,5.65
2023-04-30T06:27:15.744Z,6.35
2023-04-30T06:29:42.152Z,5.80
2023-04-30T06:32:08.684Z,6.32
2023-04-30T06:34:35.298Z,6.22
2023-04-30T06:37:01.604Z,5.35
2023-04-30T06:39:27.965Z,6.50
2023-04-30T06:41:54.331Z,5.97
2023-04-30T06:44:20.605Z,5.80
2023-04-30T06:46:46.855Z,6.20
2023-04-30T06:49:13.115Z,5.78
2023-04-30T06:51:42.864Z,5.18
2023-04-30T06:54:09.144Z,5.60
2023-04-30T06:56:35.541Z,5.97
2023-04-30T06:59:01.944Z,6.15
2023-04-30T07:01:29.013Z,5.32
2023-04-30T07:03:55.652Z,5.00
2023-04-30T07:06:22.425Z,5.78
2023-04-30T07:08:48.897Z,6.40
2023-04-30T07:11:15.212Z,5.32
2023-04-30T07:13:41.965Z,4.82
2023-04-30T07:16:10.628Z,5.40
2023-04-30T07:18:37.942Z,5.07
2023-04-30T07:21:04.317Z,5.20
2023-04-30T07:23:30.826Z,5.40
2023-04-30T07:25:57.430Z,4.78
2023-04-30T07:28:23.941Z,5.63
2023-04-30T07:30:50.274Z,5.57
2023-04-30T07:33:16.598Z,5.18
2023-04-30T07:35:43.019Z,5.75
2023-04-30T07:38:09.599Z,5.95
2023-04-30T07:40:36.718Z,5.18
2023-04-30T07:43:03.991Z,4.78
2023-04-30T07:45:31.732Z,5.00
2023-04-30T07:47:58.938Z,5.05
2023-04-30T07:50:25.477Z,5.03
2023-04-30T07:52:52.059Z,5.25
2023-04-30T07:55:18.455Z,5.03
2023-04-30T07:57:44.789Z,4.72
2023-04-30T08:00:11.388Z,5.78
2023-04-30T08:02:37.868Z,5.47
2023-04-30T08:05:04.359Z,5.45
2023-04-30T08:07:30.690Z,6.43
2023-04-30T08:09:57.356Z,4.95
2023-04-30T08:12:24.040Z,4.70
2023-04-30T08:14:50.345Z,4.60
2023-04-30T08:17:16.675Z,4.60
2023-04-30T08:19:42.991Z,4.55
2023-04-30T08:22:09.324Z,5.00
2023-04-30T08:24:35.753Z,4.38
2023-04-30T08:27:03.934Z,4.57
2023-04-30T08:29:30.414Z,5.28
2023-04-30T08:31:58.239Z,5.45
2023-04-30T08:34:25.371Z,5.20
2023-04-30T08:36:51.869Z,5.25
2023-04-30T08:39:18.219Z,5.00
2023-04-30T08:41:46.705Z,4.55
2023-04-30T08:44:13.562Z,4.50
2023-04-30T08:46:41.515Z,4.95
2023-04-30T08:49:07.990Z,4.95
2023-04-30T08:51:35.431Z,4.55
2023-04-30T08:54:01.771Z,4.43
2023-04-30T08:56:29.917Z,4.18
2023-04-30T08:58:56.281Z,4.32
2023-04-30T09:01:23.272Z,4.40
2023-04-30T09:03:49.658Z,4.57
2023-04-30T09:06:16.713Z,3.90
2023-04-30T09:08:44.136Z,5.13
2023-04-30T09:11:25.827Z,4.25
2023-04-30T09:13:53.227Z,4.05
2023-04-30T09:16:20.662Z,3.53
2023-04-30T09:18:47.874Z,3.47
2023-04-30T09:21:14.330Z,3.92
2023-04-30T09:23:57.134Z,3.03
2023-04-30T09:26:27.512Z,2.78
2023-04-30T09:28:55.637Z,2.72
2023-04-30T09:31:22.177Z,3.05
2023-04-30T09:33:48.804Z,3.28
2023-04-30T09:36:15.441Z,3.35
2023-04-30T09:38:41.885Z,3.22
2023-04-30T09:41:21.006Z,3.17
2023-04-30T09:43:47.489Z,3.35
2023-04-30T09:46:14.976Z,3.30
2023-04-30T09:48:41.773Z,2.58
2023-04-30T09:51:08.186Z,2.60
2023-04-30T09:53:36.869Z,3.08
2023-04-30T09:56:06.981Z,3.03
2023-04-30T09:58:36.501Z,2.45
2023-04-30T10:01:05.053Z,3.10
2023-04-30T10:03:31.450Z,3.25
2023-04-30T10:05:58.084Z,3.35
2023-04-30T10:08:24.458Z,3.22
2023-04-30T10:10:52.486Z,2.95
2023-04-30T10:13:20.392Z,3.20
2023-04-30T10:15:49.315Z,3.03
2023-04-30T10:18:20.437Z,3.63
2023-04-30T10:20:48.032Z,4.07
2023-04-30T10:23:14.453Z,2.88
2023-04-30T10:25:41.159Z,3.10
2023-04-30T10:28:08.682Z,3.33
2023-04-30T10:30:35.351Z,3.20
2023-04-30T10:33:01.758Z,3.20
2023-04-30T10:35:35.061Z,3.17
2023-04-30T10:38:01.433Z,2.28
2023-04-30T10:40:28.119Z,2.60
2023-04-30T10:42:58.033Z,2.78
2023-04-30T10:45:50.499Z,2.78
2023-04-30T10:48:24.288Z,3.00
2023-04-30T10:50:51.226Z,2.65
2023-04-30T10:53:18.377Z,2.40
2023-04-30T10:55:51.363Z,2.60
2023-04-30T10:58:27.965Z,2.83
2023-04-30T11:01:01.689Z,2.97
2023-04-30T11:03:31.381Z,2.75
2023-04-30T11:05:59.053Z,2.75
2023-04-30T11:08:38.374Z,2.67
2023-04-30T11:11:07.999Z,2.78
2023-04-30T11:13:42.077Z,2.58
2023-04-30T11:16:08.809Z,2.92
2023-04-30T11:18:41.079Z,3.22
2023-04-30T11:21:08.282Z,2.92
2023-04-30T11:23:40.354Z,2.83
2023-04-30T11:26:08.454Z,2.80
2023-04-30T11:28:36.193Z,2.20
2023-04-30T11:31:03.085Z,2.38
2023-04-30T11:33:33.157Z,2.70
2023-04-30T11:36:00.445Z,2.30
2023-04-30T11:38:36.998Z,2.83
2023-04-30T11:41:03.943Z,2.65
2023-04-30T11:43:31.384Z,2.92
2023-04-30T11:46:04.308Z,2.83
2023-04-30T11:48:31.426Z,2.30
2023-04-30T11:50:58.068Z,2.20
2023-04-30T11:53:29.353Z,2.22
2023-04-30T11:55:55.676Z,2.65
2023-04-30T11:58:23.038Z,2.30
2023-04-30T12:00:52.012Z,2.80
2023-04-30T12:03:18.726Z,2.53
2023-04-30T12:05:46.024Z,2.63
2023-04-30T12:08:13.028Z,2.38
2023-04-30T12:10:39.392Z,2.50
2023-04-30T12:13:05.822Z,2.78
2023-04-30T12:15:33.228Z,2.63
2023-04-30T12:18:00.274Z,2.35
2023-04-30T12:20:28.143Z,2.30
2023-04-30T12:22:54.798Z,1.60
2023-04-30T12:25:22.232Z,2.30
2023-04-30T12:27:49.701Z,2.42
2023-04-30T12:30:19.433Z,2.00
2023-04-30T12:32:46.289Z,1.70
2023-04-30T12:35:16.541Z,2.13
2023-04-30T12:37:44.419Z,2.00
2023-04-30T12:40:11.330Z,2.00
2023-04-30T12:42:37.989Z,1.88
2023-04-30T12:45:04.603Z,1.80
2023-04-30T12:47:31.036Z,1.30
2023-04-30T12:49:58.115Z,1.35
2023-04-30T12:52:26.426Z,1.30
2023-04-30T12:54:54.516Z,1.73
2023-04-30T12:57:21.172Z,1.58
2023-04-30T12:59:54.030Z,1.30
2023-04-30T13:02:23.846Z,1.60
2023-04-30T13:04:51.690Z,1.40
2023-04-30T13:07:18.046Z,1.70
2023-04-30T13:09:44.538Z,1.20
2023-04-30T13:12:10.802Z,0.98
2023-04-30T13:14:37.236Z,1.50
2023-04-30T13:17:06.895Z,1.40
2023-04-30T13:19:33.913Z,1.20
2023-04-30T13:22:01.728Z,1.30
2023-04-30T13:24:28.145Z,1.30
2023-04-30T13:26:54.494Z,1.65
2023-04-30T13:29:20.994Z,1.60
2023-04-30T13:31:49.114Z,1.27
2023-04-30T13:34:15.654Z,1.40
2023-04-30T13:36:41.980Z,1.25
2023-04-30T13:39:08.329Z,1.60
2023-04-30T13:41:34.848Z,1.25
2023-04-30T13:44:01.178Z,1.20
2023-04-30T13:46:27.767Z,1.50
2023-04-30T13:48:54.258Z,1.58
2023-04-30T13:51:20.906Z,1.50
2023-04-30T13:53:47.222Z,1.40
2023-04-30T13:56:15.354Z,1.67
2023-04-30T13:58:41.708Z,1.50
2023-04-30T14:01:09.115Z,1.52
2023-04-30T14:03:35.594Z,1.40
2023-04-30T14:06:02.005Z,1.27
2023-04-30T14:08:28.390Z,1.20
2023-04-30T14:10:54.893Z,1.50
2023-04-30T14:13:21.189Z,1.42
2023-04-30T14:15:48.170Z,1.40
2023-04-30T14:18:14.678Z,1.20
2023-04-30T14:20:41.274Z,1.58
2023-04-30T14:23:08.669Z,1.50
2023-04-30T14:25:35.062Z,1.70
2023-04-30T14:28:01.416Z,1.42
2023-04-30T14:30:28.169Z,1.25
2023-04-30T14:32:54.831Z,1.40
2023-04-30T14:35:21.252Z,1.05
2023-04-30T14:37:47.653Z,0.90
2023-04-30T14:40:14.610Z,0.95
2023-04-30T14:42:41.070Z,1.33
2023-04-30T14:45:07.864Z,1.25
2023-04-30T14:47:34.265Z,1.27
2023-04-30T14:50:02.277Z,1.00
2023-04-30T14:52:29.213Z,1.20
2023-04-30T14:54:56.080Z,0.95
2023-04-30T14:57:23.487Z,1.23
2023-04-30T14:59:49.948Z,1.20
2023-04-30T15:02:16.368Z,1.20
2023-04-30T15:04:45.915Z,1.20
2023-04-30T15:07:12.458Z,1.63
2023-04-30T15:09:38.992Z,1.20
2023-04-30T15:12:05.910Z,1.50
2023-04-30T15:14:32.344Z,0.95
2023-04-30T15:17:00.225Z,1.17
2023-04-30T15:19:26.741Z,0.90
2023-04-30T15:21:53.069Z,0.77
2023-04-30T15:24:19.412Z,0.70
2023-04-30T15:26:45.756Z,0.70
2023-04-30T15:29:12.162Z,1.10
2023-04-30T15:31:38.629Z,0.70
2023-04-30T15:34:05.043Z,0.75
2023-04-30T15:36:32.421Z,0.65
2023-04-30T15:38:59.532Z,0.70
2023-04-30T15:41:25.953Z,0.90
2023-04-30T15:43:52.268Z,0.90
2023-04-30T15:46:18.984Z,0.85
2023-04-30T15:48:45.316Z,1.27
2023-04-30T15:51:11.666Z,0.70
2023-04-30T15:53:38.097Z,0.80
2023-04-30T15:56:04.766Z,1.00
2023-04-30T15:58:31.287Z,0.90
2023-04-30T16:00:57.664Z,0.90
2023-04-30T16:03:24.481Z,1.25
2023-04-30T16:05:50.982Z,1.20
2023-04-30T16:08:17.346Z,0.98
2023-04-30T16:10:44.246Z,0.80
2023-04-30T16:13:10.612Z,1.20
2023-04-30T16:15:37.134Z,0.73
2023-04-30T16:18:03.580Z,1.08
2023-04-30T16:20:31.355Z,0.90
2023-04-30T16:22:58.252Z,0.77
2023-04-30T16:25:24.634Z,0.70
2023-04-30T16:27:51.558Z,0.68
2023-04-30T16:30:17.951Z,1.27
2023-04-30T16:32:44.667Z,0.88
2023-04-30T16:35:11.123Z,1.05
2023-04-30T16:37:37.620Z,0.90
2023-04-30T16:40:06.410Z,0.80
2023-04-30T16:42:34.860Z,1.00
2023-04-30T16:45:01.592Z,1.05
2023-04-30T16:47:28.275Z,0.80
2023-04-30T16:49:55.802Z,0.90
2023-04-30T16:52:22.385Z,1.08
2023-04-30T16:54:48.706Z,1.20
2023-04-30T16:57:15.024Z,0.90
2023-04-30T16:59:41.794Z,0.73
2023-04-30T17:02:08.301Z,0.90
2023-04-30T17:04:35.887Z,0.60
2023-04-30T17:07:03.155Z,0.90
2023-04-30T17:09:30.227Z,0.90
2023-04-30T17:11:56.790Z,0.63
2023-04-30T17:14:23.178Z,0.90
2023-04-30T17:16:49.529Z,0.88
2023-04-30T17:19:15.815Z,0.93
2023-04-30T17:21:42.109Z,1.00
2023-04-30T17:24:08.380Z,0.85
2023-04-30T17:26:34.859Z,0.85
2023-04-30T17:29:01.316Z,0.88
2023-04-30T17:31:30.415Z,0.80
2023-04-30T17:33:57.018Z,1.05
2023-04-30T17:36:24.575Z,0.90
2023-04-30T17:38:50.919Z,0.70
2023-04-30T17:41:18.750Z,0.90
2023-04-30T17:43:45.312Z,0.80
2023-04-30T17:46:11.756Z,0.95
2023-04-30T17:48:38.287Z,0.95
2023-04-30T17:51:04.997Z,1.00
2023-04-30T17:53:31.389Z,1.05
2023-04-30T17:55:59.557Z,0.80
2023-04-30T17:58:28.401Z,0.80
2023-04-30T18:00:56.407Z,0.82
2023-04-30T18:03:22.860Z,1.10
2023-04-30T18:05:49.199Z,0.90
2023-04-30T18:08:15.525Z,0.82
2023-04-30T18:10:41.898Z,0.95
2023-04-30T18:13:08.298Z,0.90
2023-04-30T18:15:34.720Z,1.02
2023-04-30T18:18:01.090Z,1.20
2023-04-30T18:20:28.419Z,0.90
2023-04-30T18:22:54.741Z,0.93
2023-04-30T18:25:21.018Z,1.23
2023-04-30T18:27:47.313Z,1.75
2023-04-30T18:30:13.688Z,1.20
2023-04-30T18:32:41.563Z,1.27
2023-04-30T18:35:08.234Z,1.40
2023-04-30T18:37:34.658Z,1.38
2023-04-30T18:40:01.518Z,1.20
2023-04-30T18:42:29.328Z,1.40
2023-04-30T18:44:56.930Z,1.33
2023-04-30T18:47:23.819Z,1.80
2023-04-30T18:49:50.115Z,1.30
2023-04-30T18:52:16.469Z,1.60
2023-04-30T18:54:43.078Z,1.27
2023-04-30T18:57:12.461Z,1.40
2023-04-30T18:59:39.540Z,1.20
2023-04-30T19:02:06.124Z,1.52
2023-04-30T19:04:32.505Z,1.50
2023-04-30T19:06:59.178Z,1.60
2023-04-30T19:09:25.497Z,1.60
2023-04-30T19:11:51.898Z,1.58
2023-04-30T19:14:18.283Z,1.67
2023-04-30T19:16:44.786Z,1.70
2023-04-30T19:19:11.204Z,1.63
2023-04-30T19:21:37.701Z,1.42
2023-04-30T19:24:04.113Z,1.70
2023-04-30T19:26:31.318Z,1.83
2023-04-30T19:28:57.653Z,1.50
2023-04-30T19:31:24.050Z,1.75
2023-04-30T19:33:50.488Z,1.90
2023-04-30T19:36:17.371Z,1.65
2023-04-30T19:38:43.710Z,1.67
2023-04-30T19:41:10.042Z,1.90
2023-04-30T19:43:37.066Z,2.15
2023-04-30T19:46:03.765Z,2.28
2023-04-30T19:48:31.421Z,1.80
2023-04-30T19:50:58.433Z,1.40
2023-04-30T19:53:27.497Z,1.60
2023-04-30T19:55:53.782Z,1.90
2023-04-30T19:58:20.264Z,1.50
2023-04-30T20:00:46.702Z,1.90
2023-04-30T20:03:13.985Z,2.03
2023-04-30T20:05:40.446Z,1.92
2023-04-30T20:08:07.573Z,2.08
2023-04-30T20:10:36.180Z,1.70
2023-04-30T20:13:03.666Z,1.70
2023-04-30T20:15:30.665Z,1.67
2023-04-30T20:17:57.009Z,1.95
2023-04-30T20:20:26.516Z,1.60
2023-04-30T20:22:54.063Z,1.52
2023-04-30T20:25:21.432Z,2.03
2023-04-30T20:27:47.978Z,1.92
2023-04-30T20:30:14.425Z,2.03
2023-04-30T20:32:41.072Z,1.77
2023-04-30T20:35:08.303Z,1.83
2023-04-30T20:37:35.327Z,1.88
2023-04-30T20:40:02.306Z,2.05
2023-04-30T20:42:29.506Z,2.53
2023-04-30T20:44:56.265Z,2.58
2023-04-30T20:47:23.143Z,2.55
2023-04-30T20:49:49.470Z,2.55
2023-04-30T20:52:15.814Z,2.85
2023-04-30T20:54:42.074Z,2.88
2023-04-30T20:57:09.016Z,2.67
2023-04-30T20:59:35.779Z,2.75
2023-04-30T21:02:02.634Z,2.88
2023-04-30T21:04:29.438Z,3.90
2023-04-30T21:06:56.201Z,3.67
2023-04-30T21:09:23.124Z,3.75
2023-04-30T21:11:49.457Z,3.65
2023-04-30T21:14:15.874Z,4.03
2023-04-30T21:16:42.471Z,3.45
2023-04-30T21:19:08.896Z,3.53
2023-04-30T21:21:35.289Z,3.50
2023-04-30T21:24:01.554Z,2.92
2023-04-30T21:26:28.467Z,3.63
2023-04-30T21:28:54.871Z,2.33
2023-04-30T21:31:21.350Z,2.60
2023-04-30T21:33:48.119Z,2.85
2023-04-30T21:36:16.418Z,2.78
2023-04-30T21:38:43.075Z,2.55
2023-04-30T21:41:13.716Z,2.67
2023-04-30T21:43:41.476Z,2.17
2023-04-30T21:46:07.881Z,2.03
2023-04-30T21:48:34.351Z,2.22
2023-04-30T21:51:00.658Z,3.42
2023-04-30T21:53:27.231Z,2.20
2023-04-30T21:55:53.704Z,1.90
2023-04-30T21:58:20.059Z,1.98
2023-04-30T22:00:46.649Z,1.88
2023-04-30T22:03:15.506Z,2.83
2023-04-30T22:05:43.383Z,2.13
2023-04-30T22:08:09.690Z,2.53
2023-04-30T22:10:36.263Z,2.03
2023-04-30T22:13:02.642Z,2.28
2023-04-30T22:15:40.677Z,2.55
2023-04-30T22:18:13.766Z,1.98
2023-04-30T22:20:40.185Z,2.17
2023-04-30T22:23:06.722Z,2.53
2023-04-30T22:25:33.302Z,2.25
2023-04-30T22:27:59.775Z,2.42
2023-04-30T22:30:26.357Z,2.20
2023-04-30T22:32:56.584Z,2.08
2023-04-30T22:35:23.222Z,2.42
2023-04-30T22:37:49.661Z,2.13
2023-04-30T22:40:16.584Z,2.60
2023-04-30T22:42:43.443Z,2.72
2023-04-30T22:45:10.277Z,2.10
2023-04-30T22:47:36.670Z,2.35
2023-04-30T22:50:03.723Z,2.45
2023-04-30T22:52:31.973Z,2.10
2023-04-30T22:55:00.418Z,2.70
2023-04-30T22:57:27.071Z,2.60
2023-04-30T22:59:54.221Z,2.30
2023-04-30T23:02:20.800Z,3.15
2023-04-30T23:04:47.259Z,2.28
2023-04-30T23:07:13.576Z,2.70
2023-04-30T23:09:39.829Z,2.40
2023-04-30T23:12:06.591Z,2.50
2023-04-30T23:14:32.904Z,2.33
2023-04-30T23:17:00.968Z,2.40
2023-04-30T23:19:27.397Z,2.85
2023-04-30T23:21:53.902Z,2.60
2023-04-30T23:24:20.216Z,2.78
2023-04-30T23:26:47.287Z,2.63
2023-04-30T23:29:14.704Z,2.50
2023-04-30T23:31:41.037Z,2.50
2023-04-30T23:34:07.353Z,2.92
2023-04-30T23:36:33.737Z,2.83
2023-04-30T23:39:00.382Z,3.00
2023-04-30T23:41:26.929Z,2.30
2023-04-30T23:43:53.497Z,2.78
2023-04-30T23:46:20.617Z,2.70
2023-04-30T23:48:47.076Z,2.55
2023-04-30T23:51:13.409Z,2.55
2023-04-30T23:53:39.831Z,2.50
2023-04-30T23:56:06.559Z,2.92
2023-04-30T23:58:33.288Z,2.60
